Time;durP1;ratioP1;P1;durP2;ratioP2;P2;SDS_P1;SDS_P2;PMS_P1;PMS_P2;Temp;Humidity;BMP_temperature;BMP_pressure;BME280_temperature;BME280_humidity;BME280_pressure;Samples;Min_cycle;Max_cycle;Signal;HPM_P1;HPM_P2
2021/04/17 00:00:39;;;;;;;;;;;;;;;10.38;78.51;101052.83;1732008;83;20301;-72
2021/04/17 00:03:11;;;;;;;;;;;;;;;10.34;78.69;101044.02;1730749;83;20379;-72
2021/04/17 00:05:43;;;;;;;;;;;;;;;10.28;78.71;101046.61;1731912;83;20298;-72
2021/04/17 00:08:17;;;;;;;;;;;;;;;10.23;78.85;101043.49;1731632;83;20229;-72
2021/04/17 00:10:50;;;;;;;;;;;;;;;10.20;78.97;101052.06;1731173;82;20216;-72
2021/04/17 00:13:21;;;;;;;;;;;;;;;10.13;79.09;101064.28;1729148;82;20264;-72
2021/04/17 00:15:53;;;;;;;;;;;;;;;10.09;79.19;101071.13;1728168;83;20273;-72
2021/04/17 00:18:25;;;;;;;;;;;;;;;10.06;79.29;101072.19;1727731;83;20610;-73
2021/04/17 00:20:57;;;;;;;;;;;;;;;10.03;79.18;101078.95;1727927;83;20173;-73
2021/04/17 00:23:30;;;;;;;;;;;;;;;9.97;79.10;101081.19;1726172;83;20205;-71
2021/04/17 00:26:02;;;;;;;;;;;;;;;9.94;79.32;101087.47;1728219;83;20234;-72
2021/04/17 00:28:36;;;;;;;;;;;;;;;9.93;79.59;101089.74;1727573;83;20162;-72
2021/04/17 00:31:08;;;;;;;;;;;;;;;9.97;79.85;101092.95;1727978;83;20173;-72
2021/04/17 00:33:41;;;;;;;;;;;;;;;10.00;80.05;101092.27;1700607;83;20233;-72
2021/04/17 00:36:13;;;;;;;;;;;;;;;10.01;79.99;101090.00;1701728;83;20265;-72
2021/04/17 00:38:45;;;;;;;;;;;;;;;10.01;80.07;101091.31;1727484;83;20301;-72
2021/04/17 00:41:17;;;;;;;;;;;;;;;9.99;79.98;101089.28;1727872;83;20158;-71
2021/04/17 00:43:49;;;;;;;;;;;;;;;9.94;80.00;101091.39;1726714;83;20238;-71
2021/04/17 00:46:21;;;;;;;;;;;;;;;9.90;80.06;101106.95;1727973;83;20238;-72
2021/04/17 00:48:53;;;;;;;;;;;;;;;9.85;80.11;101103.00;1727469;83;20178;-72
2021/04/17 00:51:26;;;;;;;;;;;;;;;9.80;80.20;101102.02;1728073;83;20285;-72
2021/04/17 00:53:58;;;;;;;;;;;;;;;9.75;80.28;101100.21;1726739;83;20316;-73
2021/04/17 00:56:32;;;;;;;;;;;;;;;9.70;80.28;101098.39;1728261;83;20225;-72
2021/04/17 00:59:04;;;;;;;;;;;;;;;9.65;80.33;101097.88;1729481;83;20189;-71
2021/04/17 01:01:39;;;;;;;;;;;;;;;9.60;80.29;101099.17;1728976;83;20170;-72
2021/04/17 01:04:17;;;;;;;;;;;;;;;9.51;80.44;101094.11;1726636;83;20689;-72
2021/04/17 01:07:02;;;;;;;;;;;;;;;9.49;80.75;101088.16;1727936;83;20213;-71
2021/04/17 01:09:35;;;;;;;;;;;;;;;9.47;80.94;101080.44;1727369;83;20269;-72
2021/04/17 01:12:11;;;;;;;;;;;;;;;9.45;80.96;101077.58;1727944;83;20173;-72
2021/04/17 01:14:47;;;;;;;;;;;;;;;9.41;80.94;101068.26;1728408;83;20280;-72
2021/04/17 01:17:19;;;;;;;;;;;;;;;9.35;80.76;101056.48;1732119;83;20277;-72
2021/04/17 01:20:08;;;;;;;;;;;;;;;9.26;80.61;101057.61;1731431;83;20173;-72
2021/04/17 01:22:40;;;;;;;;;;;;;;;9.19;80.73;101045.92;1732053;83;20538;-72
2021/04/17 01:25:17;;;;;;;;;;;;;;;9.15;80.85;101037.91;1689851;83;20610;-72
2021/04/17 01:27:50;;;;;;;;;;;;;;;9.12;80.90;101038.96;1730200;83;20170;-71
2021/04/17 01:30:23;;;;;;;;;;;;;;;9.13;81.00;101039.34;1731066;83;20277;-71
2021/04/17 01:32:57;;;;;;;;;;;;;;;9.12;80.99;101042.88;1731907;83;20277;-71
2021/04/17 01:35:31;;;;;;;;;;;;;;;9.12;81.05;101052.52;1730974;83;20272;-72
2021/04/17 01:38:09;;;;;;;;;;;;;;;9.12;81.12;101051.22;1732082;83;20354;-72
2021/04/17 01:40:43;;;;;;;;;;;;;;;9.14;81.05;101054.55;1730854;83;20609;-72
2021/04/17 01:43:15;;;;;;;;;;;;;;;9.11;80.81;101050.84;1713810;83;20285;-72
2021/04/17 01:45:47;;;;;;;;;;;;;;;9.11;80.71;101054.75;1732504;83;20300;-71
2021/04/17 01:48:19;;;;;;;;;;;;;;;9.11;80.65;101052.14;1733757;83;20236;-72
2021/04/17 01:50:52;;;;;;;;;;;;;;;9.11;80.64;101056.06;1731025;83;20231;-72
2021/04/17 01:53:24;;;;;;;;;;;;;;;9.12;80.60;101059.86;1732018;83;20569;-72
2021/04/17 01:55:57;;;;;;;;;;;;;;;9.14;80.46;101063.69;1731018;83;20297;-72
2021/04/17 01:58:31;;;;;;;;;;;;;;;9.13;80.46;101068.08;1732144;83;20613;-72
2021/04/17 02:01:05;;;;;;;;;;;;;;;9.14;80.42;101073.67;1730900;83;20209;-71
2021/04/17 02:03:37;;;;;;;;;;;;;;;9.16;80.35;101073.56;1731764;83;20409;-72
2021/04/17 02:06:09;;;;;;;;;;;;;;;9.17;80.30;101076.05;1730990;83;20621;-72
2021/04/17 02:08:41;;;;;;;;;;;;;;;9.19;80.22;101070.27;1732351;83;20626;-72
2021/04/17 02:11:13;;;;;;;;;;;;;;;9.17;79.88;101070.83;1731126;83;20265;-72
2021/04/17 02:13:45;;;;;;;;;;;;;;;9.16;79.59;101082.70;1731962;83;20618;-72
2021/04/17 02:16:21;;;;;;;;;;;;;;;9.13;79.40;101083.75;1727339;83;20705;-72
2021/04/17 02:19:03;;;;;;;;;;;;;;;9.09;79.11;101092.75;1728156;83;20270;-72
2021/04/17 02:21:40;;;;;;;;;;;;;;;9.01;79.00;101095.50;1726603;83;20654;-72
2021/04/17 02:24:12;;;;;;;;;;;;;;;8.96;79.10;101101.05;1726490;83;20558;-72
2021/04/17 02:26:45;;;;;;;;;;;;;;;8.92;79.08;101115.27;1726652;83;20606;-72
2021/04/17 02:29:18;;;;;;;;;;;;;;;8.88;79.03;101108.59;1727775;83;20270;-72
2021/04/17 02:31:51;;;;;;;;;;;;;;;8.83;79.05;101101.53;1726642;83;20566;-72
2021/04/17 02:34:23;;;;;;;;;;;;;;;8.83;79.21;101103.30;1729267;83;20277;-72
2021/04/17 02:36:55;;;;;;;;;;;;;;;8.82;79.28;101105.08;1727717;83;20249;-72
2021/04/17 02:39:27;;;;;;;;;;;;;;;8.79;79.45;101112.64;1727913;83;20237;-72
2021/04/17 02:42:00;;;;;;;;;;;;;;;8.81;79.85;101104.73;1726617;83;20218;-72
2021/04/17 02:44:32;;;;;;;;;;;;;;;8.87;80.17;101113.89;1727498;83;20262;-72
2021/04/17 02:47:06;;;;;;;;;;;;;;;8.93;80.33;101116.11;1726791;83;20297;-71
2021/04/17 02:49:39;;;;;;;;;;;;;;;9.01;80.51;101122.93;1726195;83;20661;-72
2021/04/17 02:52:11;;;;;;;;;;;;;;;9.06;80.51;101130.83;1726583;83;20269;-72
2021/04/17 02:54:46;;;;;;;;;;;;;;;9.13;80.47;101129.92;1727337;83;20245;-72
2021/04/17 02:57:21;;;;;;;;;;;;;;;9.18;80.44;101136.52;1726638;83;20264;-72
2021/04/17 02:59:53;;;;;;;;;;;;;;;9.23;80.48;101139.65;1727887;83;20201;-71
2021/04/17 03:02:25;;;;;;;;;;;;;;;9.30;80.46;101134.83;1726616;83;20221;-72
2021/04/17 03:04:57;;;;;;;;;;;;;;;9.36;80.38;101133.92;1726200;83;20677;-71
2021/04/17 03:07:29;;;;;;;;;;;;;;;9.40;80.16;101139.32;1727912;83;20265;-72
2021/04/17 03:10:01;;;;;;;;;;;;;;;9.43;80.05;101143.50;1726324;83;20233;-71
2021/04/17 03:12:33;;;;;;;;;;;;;;;9.47;80.14;101144.95;1727890;83;20209;-71
2021/04/17 03:15:06;;;;;;;;;;;;;;;9.52;80.07;101146.77;1726045;83;20265;-72
2021/04/17 03:17:38;;;;;;;;;;;;;;;9.56;79.91;101144.76;1729901;83;20193;-71
2021/04/17 03:20:12;;;;;;;;;;;;;;;9.61;79.80;101153.11;1730809;83;20170;-71
2021/04/17 03:22:43;;;;;;;;;;;;;;;9.64;79.70;101154.22;1733812;83;20197;-71
2021/04/17 03:25:16;;;;;;;;;;;;;;;9.62;79.39;101159.56;1731043;83;20669;-72
2021/04/17 03:27:47;;;;;;;;;;;;;;;9.59;79.26;101165.00;1732221;83;20204;-72
2021/04/17 03:30:27;;;;;;;;;;;;;;;9.56;79.30;101153.91;1730447;83;20260;-72
2021/04/17 03:33:00;;;;;;;;;;;;;;;9.56;79.37;101163.90;1732127;83;20157;-72
2021/04/17 03:35:32;;;;;;;;;;;;;;;9.54;79.27;101176.24;1731469;83;20301;-71
2021/04/17 03:38:04;;;;;;;;;;;;;;;9.48;79.20;101178.80;1732040;83;20197;-73
2021/04/17 03:40:37;;;;;;;;;;;;;;;9.41;79.21;101181.48;1714133;83;20170;-72
2021/04/17 03:43:09;;;;;;;;;;;;;;;9.37;79.43;101189.17;1732309;83;20605;-72
2021/04/17 03:45:41;;;;;;;;;;;;;;;9.37;79.48;101187.88;1712964;83;20709;-72
2021/04/17 03:48:13;;;;;;;;;;;;;;;9.38;79.71;101184.33;1732098;83;20229;-72
2021/04/17 03:50:45;;;;;;;;;;;;;;;9.42;79.74;101176.63;1732081;83;20375;-71
2021/04/17 03:53:17;;;;;;;;;;;;;;;9.49;79.76;101171.80;1732348;83;20643;-72
2021/04/17 03:55:50;;;;;;;;;;;;;;;9.56;79.62;101171.74;1731503;83;20193;-72
2021/04/17 03:58:22;;;;;;;;;;;;;;;9.64;79.54;101162.06;1732103;83;20198;-72
2021/04/17 04:00:58;;;;;;;;;;;;;;;9.72;79.29;101161.87;1732280;83;20618;-73
2021/04/17 04:03:30;;;;;;;;;;;;;;;9.77;78.88;101162.37;1732625;83;20226;-72
2021/04/17 04:06:02;;;;;;;;;;;;;;;9.78;78.58;101156.22;1731405;83;20197;-72
2021/04/17 04:08:35;;;;;;;;;;;;;;;9.81;78.66;101152.55;1732490;83;20169;-71
2021/04/17 04:11:08;;;;;;;;;;;;;;;9.87;78.63;101147.71;1732888;83;20216;-72
2021/04/17 04:13:41;;;;;;;;;;;;;;;9.97;78.58;101140.88;1732181;83;20624;-72
2021/04/17 04:16:15;;;;;;;;;;;;;;;10.08;78.52;101140.09;1731556;83;20212;-72
2021/04/17 04:18:48;;;;;;;;;;;;;;;10.23;78.35;101119.85;1726003;83;20635;-72
2021/04/17 04:21:20;;;;;;;;;;;;;;;10.36;78.00;101116.23;1702012;83;20229;-72
2021/04/17 04:23:52;;;;;;;;;;;;;;;10.50;77.24;101138.77;1728013;83;20170;-72
2021/04/17 04:26:24;;;;;;;;;;;;;;;10.63;76.78;101147.36;1727317;83;20226;-72
2021/04/17 04:28:56;;;;;;;;;;;;;;;10.76;76.50;101142.88;1701776;83;20241;-72
2021/04/17 04:31:28;;;;;;;;;;;;;;;10.86;76.45;101144.33;1727947;83;20218;-73
2021/04/17 04:34:05;;;;;;;;;;;;;;;10.88;76.33;101138.50;1727999;83;20233;-72
2021/04/17 04:36:38;;;;;;;;;;;;;;;10.89;76.10;101139.67;1727244;83;20289;-72
2021/04/17 04:39:10;;;;;;;;;;;;;;;10.88;75.54;101145.05;1728045;83;20260;-72
2021/04/17 04:41:45;;;;;;;;;;;;;;;10.89;75.06;101154.09;1701947;83;20339;-73
2021/04/17 04:44:17;;;;;;;;;;;;;;;10.88;74.81;101160.30;1726603;83;20197;-73
2021/04/17 04:46:49;;;;;;;;;;;;;;;10.87;74.60;101161.23;1727632;83;20225;-73
2021/04/17 04:49:22;;;;;;;;;;;;;;;10.86;74.37;101171.38;1728164;83;20213;-71
2021/04/17 04:51:54;;;;;;;;;;;;;;;10.88;74.04;101177.32;1728002;83;20173;-72
2021/04/17 04:54:27;;;;;;;;;;;;;;;10.89;73.70;101173.73;1727816;83;20256;-73
2021/04/17 04:57:00;;;;;;;;;;;;;;;10.91;73.02;101169.70;1727308;83;20681;-73
2021/04/17 04:59:31;;;;;;;;;;;;;;;10.96;72.69;101167.58;1729442;83;20305;-71
2021/04/17 05:02:06;;;;;;;;;;;;;;;11.13;72.76;101169.25;1729050;83;20218;-72
2021/04/17 05:04:38;;;;;;;;;;;;;;;11.33;71.52;101168.56;1728001;83;20553;-72
2021/04/17 05:07:13;;;;;;;;;;;;;;;11.56;70.79;101163.33;1727323;83;20669;-73
2021/04/17 05:09:45;;;;;;;;;;;;;;;11.76;70.00;101167.38;1728138;83;20598;-72
2021/04/17 05:12:17;;;;;;;;;;;;;;;11.92;69.32;101162.58;1728183;83;20669;-73
2021/04/17 05:14:49;;;;;;;;;;;;;;;;;;1726166;83;20173;-72
2021/04/17 05:17:21;;;;;;;;;;;;;;;12.22;68.11;101155.34;1727123;83;20241;-72
2021/04/17 05:19:53;;;;;;;;;;;;;;;12.42;67.61;101153.22;1726810;83;20318;-73
2021/04/17 05:22:25;;;;;;;;;;;;;;;12.65;67.15;101152.18;1727921;83;20305;-72
2021/04/17 05:24:57;;;;;;;;;;;;;;;12.95;66.54;101151.86;1727937;83;20284;-73
2021/04/17 05:27:29;;;;;;;;;;;;;;;13.28;66.04;101157.75;1727130;83;20233;-72
2021/04/17 05:30:01;;;;;;;;;;;;;;;13.75;64.62;101154.97;1727790;83;20173;-71
2021/04/17 05:32:33;;;;;;;;;;;;;;;14.40;63.56;101153.56;1726338;83;20308;-70
2021/04/17 05:35:06;;;;;;;;;;;;;;;15.05;61.34;101154.91;1727965;83;20237;-70
2021/04/17 05:37:38;;;;;;;;;;;;;;;15.50;59.08;101157.20;1727123;83;20285;-70
2021/04/17 05:40:12;;;;;;;;;;;;;;;15.87;57.08;101150.56;1727936;83;20234;-70
2021/04/17 05:42:46;;;;;;;;;;;;;;;16.05;56.29;101159.33;1727899;83;20276;-71
2021/04/17 05:45:18;;;;;;;;;;;;;;;16.10;54.80;101156.23;1727879;83;20241;-71
2021/04/17 05:47:51;;;;;;;;;;;;;;;16.28;54.22;101155.78;1728470;83;20281;-70
2021/04/17 05:50:23;;;;;;;;;;;;;;;17.20;52.77;101149.05;1729312;83;20242;-71
2021/04/17 05:53:00;;;;;;;;;;;;;;;18.47;50.16;101142.70;1728029;83;20402;-71
2021/04/17 05:55:32;;;;;;;;;;;;;;;19.71;46.97;101146.92;1728045;83;20265;-71
2021/04/17 05:58:15;;;;;;;;;;;;;;;20.80;44.94;101145.67;1727072;83;20169;-72
2021/04/17 06:00:47;;;;;;;;;;;;;;;21.91;42.98;101150.94;1727727;83;20217;-70
2021/04/17 06:03:19;;;;;;;;;;;;;;;22.99;39.76;101148.39;1727970;83;20197;-71
2021/04/17 06:05:51;;;;;;;;;;;;;;;23.94;37.92;101145.80;1727824;83;20190;-71
2021/04/17 06:08:23;;;;;;;;;;;;;;;24.85;36.47;101149.16;1727094;83;20269;-72
2021/04/17 06:10:56;;;;;;;;;;;;;;;25.69;34.22;101145.15;1726218;83;20168;-71
2021/04/17 06:13:28;;;;;;;;;;;;;;;26.48;31.82;101150.39;1701579;83;20238;-71
2021/04/17 06:16:00;;;;;;;;;;;;;;;27.12;31.21;101135.77;1727605;83;20174;-71
2021/04/17 06:18:34;;;;;;;;;;;;;;;27.64;28.71;101145.13;1726908;83;20666;-71
2021/04/17 06:21:11;;;;;;;;;;;;;;;27.82;28.63;101143.22;1729182;83;20213;-71
2021/04/17 06:23:42;;;;;;;;;;;;;;;27.99;27.88;101142.91;1731930;83;20234;-70
2021/04/17 06:26:14;;;;;;;;;;;;;;;28.23;27.41;101144.36;1731210;83;20234;-71
2021/04/17 06:28:47;;;;;;;;;;;;;;;28.58;26.46;101146.06;1729774;83;20213;-71
2021/04/17 06:31:19;;;;;;;;;;;;;;;29.04;25.47;101144.47;1730675;83;20300;-71
2021/04/17 06:33:51;;;;;;;;;;;;;;;29.43;24.56;101146.94;1731393;83;20266;-70
2021/04/17 06:36:23;;;;;;;;;;;;;;;29.70;24.93;101142.65;1732304;83;20236;-70
2021/04/17 06:38:55;;;;;;;;;;;;;;;29.91;22.62;101151.45;1731242;83;20253;-70
2021/04/17 06:41:33;;;;;;;;;;;;;;;29.67;22.64;101149.88;1731152;83;20714;-71
2021/04/17 06:44:08;;;;;;;;;;;;;;;29.49;22.53;101154.09;1732022;83;20216;-71
2021/04/17 06:46:40;;;;;;;;;;;;;;;29.60;22.96;101157.28;1731777;83;20633;-70
2021/04/17 06:49:13;;;;;;;;;;;;;;;30.03;23.20;101161.67;1730909;83;20269;-71
2021/04/17 06:51:47;;;;;;;;;;;;;;;30.56;22.70;101159.41;1731819;83;20289;-70
2021/04/17 06:54:20;;;;;;;;;;;;;;;30.85;20.59;101157.44;1732006;83;20236;-71
2021/04/17 06:56:52;;;;;;;;;;;;;;;30.94;21.14;101162.73;1731748;83;20277;-71
2021/04/17 06:59:25;;;;;;;;;;;;;;;31.06;21.71;101158.58;1730896;83;20228;-72
2021/04/17 07:01:57;;;;;;;;;;;;;;;31.23;20.28;101164.77;1731750;83;21331;-72
2021/04/17 07:04:29;;;;;;;;;;;;;;;31.36;20.40;101165.74;1732193;83;20221;-71
2021/04/17 07:07:02;;;;;;;;;;;;;;;31.63;20.20;101167.20;1731711;83;20301;-72
2021/04/17 07:09:35;;;;;;;;;;;;;;;31.96;19.43;101158.38;1712943;83;20629;-72
2021/04/17 07:12:09;;;;;;;;;;;;;;;31.54;20.04;101167.36;1731812;83;20276;-70
2021/04/17 07:14:45;;;;;;;;;;;;;;;31.05;20.49;101167.74;1731482;83;20213;-71
2021/04/17 07:17:17;;;;;;;;;;;;;;;30.54;21.15;101172.89;1732067;83;20673;-72
2021/04/17 07:19:59;;;;;;;;;;;;;;;30.55;20.95;101175.86;1730745;83;20281;-72
2021/04/17 07:22:34;;;;;;;;;;;;;;;30.31;20.22;101167.05;1731356;83;20749;-71
2021/04/17 07:25:12;;;;;;;;;;;;;;;30.35;20.74;101170.13;1733743;83;20201;-71
2021/04/17 07:27:51;;;;;;;;;;;;;;;30.53;20.35;101169.88;1731438;83;20245;-73
2021/04/17 07:30:32;;;;;;;;;;;;;;;30.97;20.52;101170.36;1730689;83;20657;-71
2021/04/17 07:33:08;;;;;;;;;;;;;;;30.62;20.03;101164.35;1730706;83;20238;-72
2021/04/17 07:35:42;;;;;;;;;;;;;;;29.69;20.64;101163.94;1730008;83;20302;-71
2021/04/17 07:38:19;;;;;;;;;;;;;;;29.32;20.34;101170.20;1730696;83;20526;-70
2021/04/17 07:41:10;;;;;;;;;;;;;;;28.76;20.56;101164.54;1732170;83;20273;-71
2021/04/17 07:43:58;;;;;;;;;;;;;;;27.91;22.21;101167.44;1730159;83;20181;-72
2021/04/17 07:46:44;;;;;;;;;;;;;;;26.62;23.88;101178.78;1731898;83;20276;-73
2021/04/17 07:49:26;;;;;;;;;;;;;;;25.21;26.48;101186.20;1731458;83;20273;-72
2021/04/17 07:52:11;;;;;;;;;;;;;;;24.01;27.98;101185.42;1731562;83;20174;-71
2021/04/17 07:55:02;;;;;;;;;;;;;;;22.92;29.97;101184.91;1731853;83;20589;-70
2021/04/17 07:57:39;;;;;;;;;;;;;;;22.18;30.62;101187.56;1731129;83;20204;-70
2021/04/17 08:00:20;;;;;;;;;;;;;;;21.46;31.61;101184.80;1731106;83;20626;-71
2021/04/17 08:02:54;;;;;;;;;;;;;;;21.54;31.97;101181.72;1731054;83;20177;-71
2021/04/17 08:05:27;;;;;;;;;;;;;;;22.76;31.34;101171.81;1732200;83;20681;-72
2021/04/17 08:07:59;;;;;;;;;;;;;;;23.81;29.94;101167.16;1731022;83;20674;-72
2021/04/17 08:10:32;;;;;;;;;;;;;;;23.95;29.35;101168.31;1731184;83;20197;-72
2021/04/17 08:13:08;;;;;;;;;;;;;;;23.43;29.10;101164.09;1732243;83;20193;-70
2021/04/17 08:15:38;;;;;;;;;;;;;;;22.49;29.02;101172.59;1733109;83;20153;-71
2021/04/17 08:18:12;;;;;;;;;;;;;;;21.39;30.17;101169.73;1731015;83;20273;-70
2021/04/17 08:20:44;;;;;;;;;;;;;;;20.33;31.31;101166.85;1730903;83;20240;-74
2021/04/17 08:23:20;;;;;;;;;;;;;;;19.39;33.51;101166.47;1727923;83;20278;-70
2021/04/17 08:25:52;;;;;;;;;;;;;;;18.70;35.20;101176.34;1727884;83;20273;-72
2021/04/17 08:28:27;;;;;;;;;;;;;;;18.18;36.93;101173.13;1727292;83;20258;-72
2021/04/17 08:31:20;;;;;;;;;;;;;;;17.79;37.80;101172.02;1726855;83;20277;-71
2021/04/17 08:34:18;;;;;;;;;;;;;;;17.69;38.71;101174.47;1726967;83;20275;-72
2021/04/17 08:36:52;;;;;;;;;;;;;;;18.21;37.45;101169.81;1728193;83;20229;-70
2021/04/17 08:39:36;;;;;;;;;;;;;;;19.30;35.08;101158.17;1726661;83;20614;-71
2021/04/17 08:42:19;;;;;;;;;;;;;;;20.28;32.72;101155.91;1726438;83;20209;-72
2021/04/17 08:44:50;;;;;;;;;;;;;;;21.25;30.92;101148.76;1728213;83;20646;-72
2021/04/17 08:47:53;;;;;;;;;;;;;;;22.01;29.52;101150.97;1728266;83;20150;-73
2021/04/17 08:50:32;;;;;;;;;;;;;;;21.92;30.44;101160.61;1727206;83;20269;-71
2021/04/17 08:53:07;;;;;;;;;;;;;;;21.73;30.13;101159.34;1727417;83;20205;-71
2021/04/17 08:55:43;;;;;;;;;;;;;;;21.25;30.52;101157.25;1728111;83;20280;-71
2021/04/17 08:58:23;;;;;;;;;;;;;;;21.09;29.73;101156.09;1727455;83;20226;-71
2021/04/17 09:00:58;;;;;;;;;;;;;;;21.40;30.22;101153.56;1726888;83;20297;-71
2021/04/17 09:03:47;;;;;;;;;;;;;;;21.95;28.57;101150.88;1728053;83;20173;-70
2021/04/17 09:06:29;;;;;;;;;;;;;;;22.22;28.11;101146.66;1729744;83;20229;-70
2021/04/17 09:09:20;;;;;;;;;;;;;;;22.20;27.23;101156.19;1727024;83;20261;-71
2021/04/17 09:11:55;;;;;;;;;;;;;;;22.43;27.63;101150.66;1726520;83;20625;-71
2021/04/17 09:14:36;;;;;;;;;;;;;;;23.11;27.06;101144.66;1726793;83;20919;-71
2021/04/17 09:17:30;;;;;;;;;;;;;;;23.44;26.23;101129.67;1728109;83;20277;-69
2021/04/17 09:20:07;;;;;;;;;;;;;;;23.32;25.50;101136.56;1726203;83;20229;-70
2021/04/17 09:22:43;;;;;;;;;;;;;;;23.17;26.20;101134.52;1727891;82;20174;-72
2021/04/17 09:25:36;;;;;;;;;;;;;;;23.15;24.46;101128.55;1730082;82;20585;-71
2021/04/17 09:28:09;;;;;;;;;;;;;;;23.16;25.50;101133.72;1732288;83;20166;-70
2021/04/17 09:30:43;;;;;;;;;;;;;;;23.44;24.78;101133.68;1731698;83;20700;-70
2021/04/17 09:33:18;;;;;;;;;;;;;;;23.53;25.00;101135.16;1714207;83;20268;-70
2021/04/17 09:35:50;;;;;;;;;;;;;;;23.43;24.90;101140.03;1732745;83;20233;-71
2021/04/17 09:38:25;;;;;;;;;;;;;;;23.31;24.45;101144.25;1732014;83;20232;-71
2021/04/17 09:40:57;;;;;;;;;;;;;;;22.91;24.17;101145.86;1731800;83;20312;-71
2021/04/17 09:43:31;;;;;;;;;;;;;;;22.41;25.42;101154.86;1732083;83;20300;-71
2021/04/17 09:46:05;;;;;;;;;;;;;;;22.10;25.49;101155.67;1732335;83;20173;-71
2021/04/17 09:48:44;;;;;;;;;;;;;;;21.73;26.40;101149.17;1732172;83;20200;-71
2021/04/17 09:51:24;;;;;;;;;;;;;;;21.60;27.42;101147.16;1731900;83;20273;-71
2021/04/17 09:54:01;;;;;;;;;;;;;;;21.57;27.02;101141.36;1733519;83;20305;-71
2021/04/17 09:56:43;;;;;;;;;;;;;;;21.44;27.48;101148.20;1731442;83;20681;-71
2021/04/17 09:59:15;;;;;;;;;;;;;;;21.17;26.86;101152.00;1731869;83;20209;-72
2021/04/17 10:01:55;;;;;;;;;;;;;;;20.72;27.65;101148.92;1731492;83;20634;-71
2021/04/17 10:04:46;;;;;;;;;;;;;;;20.42;28.33;101157.30;1731618;83;20269;-70
2021/04/17 10:07:19;;;;;;;;;;;;;;;20.20;28.39;101156.80;1732391;83;20240;-71
2021/04/17 10:10:03;;;;;;;;;;;;;;;19.93;28.48;101166.58;1731473;83;20311;-71
2021/04/17 10:12:52;;;;;;;;;;;;;;;19.59;28.59;101168.23;1729456;82;20289;-71
2021/04/17 10:15:28;;;;;;;;;;;;;;;19.26;29.42;101164.00;1730863;82;20177;-70
2021/04/17 10:18:01;;;;;;;;;;;;;;;19.05;29.12;101159.24;1732306;83;20288;-71
2021/04/17 10:20:35;;;;;;;;;;;;;;;18.60;30.36;101166.91;1731107;83;20542;-70
2021/04/17 10:23:07;;;;;;;;;;;;;;;18.28;30.39;101175.63;1732261;83;20237;-70
2021/04/17 10:25:44;;;;;;;;;;;;;;;18.05;30.07;101171.45;1725517;82;20189;-71
2021/04/17 10:28:22;;;;;;;;;;;;;;;17.80;30.70;101171.03;1726158;83;20266;-70
2021/04/17 10:30:56;;;;;;;;;;;;;;;17.66;31.14;101172.14;1726487;83;20285;-72
2021/04/17 10:33:29;;;;;;;;;;;;;;;17.51;31.55;101174.52;1701173;83;20284;-72
2021/04/17 10:36:02;;;;;;;;;;;;;;;17.41;32.07;101171.99;1726468;83;20266;-72
2021/04/17 10:38:38;;;;;;;;;;;;;;;17.38;32.12;101167.52;1727881;83;20393;-71
2021/04/17 10:41:18;;;;;;;;;;;;;;;17.48;33.07;101170.37;1726829;83;20383;-71
2021/04/17 10:43:45;;;;;;;;;;;;;;;17.63;31.76;101165.34;1726366;83;20222;-71
2021/04/17 10:46:17;;;;;;;;;;;;;;;17.60;31.82;101170.14;1726510;83;20235;-71
2021/04/17 10:48:48;;;;;;;;;;;;;;;17.57;32.32;101169.96;1727932;83;20226;-70
2021/04/17 10:51:21;;;;;;;;;;;;;;;17.59;33.27;101168.47;1726248;83;20250;-71
2021/04/17 10:53:52;;;;;;;;;;;;;;;17.61;33.65;101169.97;1727839;83;20218;-70
2021/04/17 10:56:25;;;;;;;;;;;;;;;17.56;33.15;101174.91;1726310;83;20282;-71
2021/04/17 10:59:01;;;;;;;;;;;;;;;17.27;33.31;101172.58;1727870;83;20307;-70
2021/04/17 11:01:38;;;;;;;;;;;;;;;16.99;34.16;101173.73;1726338;83;20237;-71
2021/04/17 11:04:11;;;;;;;;;;;;;;;16.78;34.53;101176.73;1727874;83;20258;-72
2021/04/17 11:06:50;;;;;;;;;;;;;;;16.66;35.34;101177.12;1726571;83;20281;-72
2021/04/17 11:09:22;;;;;;;;;;;;;;;16.61;35.22;101172.30;1728029;83;20607;-71
2021/04/17 11:11:57;;;;;;;;;;;;;;;16.64;35.83;101173.80;1726324;83;20258;-71
2021/04/17 11:14:30;;;;;;;;;;;;;;;16.75;35.23;101177.52;1727708;83;20231;-71
2021/04/17 11:17:13;;;;;;;;;;;;;;;17.00;35.89;101184.66;1726245;83;20167;-72
2021/04/17 11:19:46;;;;;;;;;;;;;;;17.27;35.12;101172.58;1727868;83;20303;-71
2021/04/17 11:22:24;;;;;;;;;;;;;;;17.45;34.89;101176.48;1727180;83;20306;-71
2021/04/17 11:25:02;;;;;;;;;;;;;;;17.54;34.39;101171.59;1727511;83;20174;-71
2021/04/17 11:27:35;;;;;;;;;;;;;;;17.66;34.58;101171.65;1634646;87;20236;-72
2021/04/17 11:30:08;;;;;;;;;;;;;;;17.83;33.75;101173.38;1657793;87;20322;-71
2021/04/17 11:32:41;;;;;;;;;;;;;;;17.83;33.41;101178.67;1638273;88;20632;-71
2021/04/17 11:35:16;;;;;;;;;;;;;;;17.63;32.68;101175.93;1646325;87;20234;-71
2021/04/17 11:37:48;;;;;;;;;;;;;;;17.39;32.63;101170.48;1646766;87;20644;-71
2021/04/17 11:40:20;;;;;;;;;;;;;;;17.22;33.67;101173.54;1647291;87;20227;-70
2021/04/17 11:42:51;;;;;;;;;;;;;;;17.25;34.34;101172.40;1646781;87;20250;-69
2021/04/17 11:45:24;;;;;;;;;;;;;;;17.30;34.50;101176.24;1647244;87;20238;-71
2021/04/17 11:47:57;;;;;;;;;;;;;;;17.39;34.44;101167.35;1647684;87;20611;-70
2021/04/17 11:50:30;;;;;;;;;;;;;;;17.52;34.19;101169.61;1647517;87;20274;-70
2021/04/17 11:53:03;;;;;;;;;;;;;;;17.59;33.98;101173.28;1645867;87;20230;-70
2021/04/17 11:55:36;;;;;;;;;;;;;;;17.59;34.15;101168.47;1647482;87;20269;-69
2021/04/17 11:58:08;;;;;;;;;;;;;;;17.53;34.17;101173.09;1647671;87;20285;-69
2021/04/17 12:00:41;;;;;;;;;;;;;;;17.49;34.40;101174.69;1647718;87;20365;-70
2021/04/17 12:03:21;;;;;;;;;;;;;;;17.47;33.86;101179.80;1647115;87;20286;-70
2021/04/17 12:05:50;;;;;;;;;;;;;;;17.38;33.56;101172.81;1647836;87;20292;-70
2021/04/17 12:08:22;;;;;;;;;;;;;;;17.25;33.97;101173.23;1647911;87;20600;-70
2021/04/17 12:10:54;;;;;;;;;;;;;;;17.20;34.55;101177.33;1624692;87;20250;-70
2021/04/17 12:13:27;;;;;;;;;;;;;;;17.21;34.62;101175.86;1646974;87;20243;-72
2021/04/17 12:16:00;;;;;;;;;;;;;;;17.21;34.73;101173.70;1647610;87;20275;-71
2021/04/17 12:18:33;;;;;;;;;;;;;;;17.16;34.74;101166.73;1649040;87;20738;-70
2021/04/17 12:21:10;;;;;;;;;;;;;;;17.07;34.76;101165.02;1649190;87;20238;-71
2021/04/17 12:23:42;;;;;;;;;;;;;;;16.97;34.58;101161.64;1646942;87;20282;-70
2021/04/17 12:26:14;;;;;;;;;;;;;;;16.88;34.83;101160.77;1650403;86;20195;-70
2021/04/17 12:28:46;;;;;;;;;;;;;;;16.81;34.80;101145.98;1672366;86;20277;-71
2021/04/17 12:31:18;;;;;;;;;;;;;;;16.70;35.75;101158.63;1654460;86;20512;-71
2021/04/17 12:33:50;;;;;;;;;;;;;;;16.64;36.24;101164.55;1673160;86;20619;-71
2021/04/17 12:36:22;;;;;;;;;;;;;;;16.58;36.26;101159.37;1673624;86;20274;-71
2021/04/17 12:38:54;;;;;;;;;;;;;;;16.55;36.49;101157.54;1673822;86;20167;-71
2021/04/17 12:41:26;;;;;;;;;;;;;;;16.47;36.44;101164.03;1673778;86;20655;-71
2021/04/17 12:43:58;;;;;;;;;;;;;;;16.36;36.63;101162.44;1672999;86;20623;-72
2021/04/17 12:46:30;;;;;;;;;;;;;;;16.35;36.77;101161.28;1673736;86;20231;-71
2021/04/17 12:49:04;;;;;;;;;;;;;;;16.31;36.98;101162.06;1673731;86;20277;-71
2021/04/17 12:51:38;;;;;;;;;;;;;;;16.24;36.93;101158.36;1673670;86;20686;-71
2021/04/17 12:54:10;;;;;;;;;;;;;;;16.22;37.26;101164.28;1672968;86;20281;-71
2021/04/17 12:56:43;;;;;;;;;;;;;;;16.22;37.14;101174.02;1673750;86;20622;-71
2021/04/17 12:59:15;;;;;;;;;;;;;;;16.18;37.38;101169.54;1673846;86;20265;-71
2021/04/17 13:01:50;;;;;;;;;;;;;;;16.12;37.42;101167.00;1673628;86;20234;-71
2021/04/17 13:04:23;;;;;;;;;;;;;;;16.07;37.81;101169.25;1672859;86;20306;-72
2021/04/17 13:06:55;;;;;;;;;;;;;;;16.01;37.81;101175.63;1674451;86;20270;-71
2021/04/17 13:09:27;;;;;;;;;;;;;;;15.89;37.77;101180.29;1675370;86;20250;-71
2021/04/17 13:11:59;;;;;;;;;;;;;;;15.66;38.14;101174.23;1674050;86;20634;-72
2021/04/17 13:14:31;;;;;;;;;;;;;;;15.47;38.41;101172.04;1672920;86;20171;-71
2021/04/17 13:17:03;;;;;;;;;;;;;;;15.39;39.00;101171.89;1673785;86;20258;-71